Time;durP1;ratioP1;P1;durP2;ratioP2;P2;SDS_P1;SDS_P2;PMS_P1;PMS_P2;Temp;Humidity;BMP_temperature;BMP_pressure;BME280_temperature;BME280_humidity;BME280_pressure;Samples;Min_cycle;Max_cycle;Signal;HPM_P1;HPM_P2
2023/05/25 00:00:14;;;;;;;12.77;3.38;;;;;;;13.98;47.53;100438.09;4937114;28;20062;-87
2023/05/25 00:02:41;;;;;;;9.02;2.50;;;;;;;14.03;47.63;100435.84;4910542;28;20066;-87
2023/05/25 00:05:09;;;;;;;8.13;2.65;;;;;;;14.04;47.41;100438.38;4953480;28;20589;-87
2023/05/25 00:07:37;;;;;;;7.47;2.60;;;;;;;13.95;47.92;100430.38;4936268;28;20126;-88
2023/05/25 00:10:05;;;;;;;10.55;2.85;;;;;;;13.97;47.73;100439.06;4931047;28;20051;-87
2023/05/25 00:12:33;;;;;;;9.02;3.10;;;;;;;13.98;47.60;100435.44;4928165;28;20083;-88
2023/05/25 00:15:00;;;;;;;11.88;2.92;;;;;;;13.94;47.59;100429.53;4936905;28;20410;-88
2023/05/25 00:17:28;;;;;;;10.25;3.15;;;;;;;13.89;47.77;100429.97;4947433;28;20045;-87
2023/05/25 00:19:56;;;;;;;10.65;3.50;;;;;;;13.83;47.94;100435.03;4958744;28;20109;-87
2023/05/25 00:22:27;;;;;;;9.95;2.90;;;;;;;13.85;48.12;100419.72;4958526;28;20050;-88
2023/05/25 00:24:54;;;;;;;10.55;2.83;;;;;;;13.76;48.10;100421.41;4960977;28;20066;-87
2023/05/25 00:27:21;;;;;;;8.88;3.20;;;;;;;13.83;47.99;100432.34;4968181;28;20050;-88
2023/05/25 00:29:48;;;;;;;13.85;3.05;;;;;;;13.87;47.85;100426.59;4933659;28;20528;-87
2023/05/25 00:32:15;;;;;;;8.35;2.97;;;;;;;13.77;48.09;100420.44;4934178;28;20545;-87
2023/05/25 00:34:42;;;;;;;8.77;3.50;;;;;;;13.62;48.73;100420.00;4932081;28;20693;-87
2023/05/25 00:37:09;;;;;;;10.98;3.45;;;;;;;13.72;48.43;100420.00;4920988;28;20042;-87
2023/05/25 00:39:36;;;;;;;11.35;2.65;;;;;;;13.67;48.39;100419.59;4936379;28;20129;-88
2023/05/25 00:42:05;;;;;;;11.82;2.80;;;;;;;13.72;48.26;100424.50;4942196;28;20051;-86
2023/05/25 00:44:32;;;;;;;14.43;3.20;;;;;;;13.64;48.69;100431.41;4934166;28;20047;-87
2023/05/25 00:47:01;;;;;;;9.75;2.90;;;;;;;13.56;48.84;100425.06;4927549;28;20114;-88
2023/05/25 00:49:31;;;;;;;9.07;2.85;;;;;;;13.67;48.53;100433.78;4938167;28;20477;-87
2023/05/25 00:51:58;;;;;;;11.88;2.83;;;;;;;13.64;48.59;100419.88;4921035;28;20079;-86
2023/05/25 00:54:26;;;;;;;12.73;3.72;;;;;;;13.63;48.69;100410.16;4937286;28;20047;-87
2023/05/25 00:57:06;;;;;;;8.98;2.78;;;;;;;13.60;49.20;100413.13;4920437;28;20106;-87
2023/05/25 00:59:40;;;;;;;13.52;2.85;;;;;;;13.60;48.81;100419.31;4928470;28;20055;-89
2023/05/25 01:02:09;;;;;;;11.50;2.85;;;;;;;13.51;49.14;100420.16;4935970;28;20465;-88
2023/05/25 01:04:46;;;;;;;12.02;3.30;;;;;;;13.44;49.49;100422.53;4980058;28;20069;-88
2023/05/25 01:07:22;;;;;;;12.93;3.55;;;;;;;13.58;48.85;100417.75;4972310;28;20058;-88
2023/05/25 01:09:59;;;;;;;11.02;3.25;;;;;;;13.58;49.13;100413.25;4966455;28;20043;-87
2023/05/25 01:12:29;;;;;;;11.20;3.33;;;;;;;13.63;48.81;100408.34;4938651;28;20519;-87
2023/05/25 01:14:57;;;;;;;8.75;2.78;;;;;;;13.67;48.77;100415.09;4939687;28;20105;-87
2023/05/25 01:17:25;;;;;;;9.65;3.10;;;;;;;13.73;48.59;100420.84;4915774;28;20386;-88
2023/05/25 01:19:52;;;;;;;10.88;2.80;;;;;;;13.73;48.60;100418.19;4928165;28;20114;-87
2023/05/25 01:22:46;;;;;;;11.48;3.13;;;;;;;13.70;49.22;100426.47;4941844;28;20051;-87
2023/05/25 01:25:27;;;;;;;6.45;3.22;;;;;;;13.71;49.19;100420.16;4961137;28;20540;-87
2023/05/25 01:28:13;;;;;;;7.35;3.22;;;;;;;13.73;49.06;100427.03;4940782;28;20046;-87
2023/05/25 01:30:42;;;;;;;14.77;4.40;;;;;;;13.77;48.60;100424.94;4929616;28;20042;-88
2023/05/25 01:33:09;;;;;;;12.35;3.10;;;;;;;13.72;48.92;100428.03;4970297;28;20055;-87
2023/05/25 01:35:37;;;;;;;15.45;3.67;;;;;;;13.61;49.41;100426.34;4955816;28;20069;-89
2023/05/25 01:38:04;;;;;;;9.82;3.22;;;;;;;13.60;49.41;100413.97;4946973;28;20171;-87
2023/05/25 01:40:31;;;;;;;11.45;3.95;;;;;;;13.60;49.24;100423.81;4949765;28;20098;-87
2023/05/25 01:43:00;;;;;;;10.35;3.10;;;;;;;13.62;49.10;100428.00;4944457;28;20070;-88
2023/05/25 01:45:27;;;;;;;7.60;3.78;;;;;;;13.61;49.15;100422.81;4926359;28;20504;-87
2023/05/25 01:48:05;;;;;;;9.95;2.90;;;;;;;13.67;49.46;100423.09;4911201;28;20050;-87
2023/05/25 01:50:42;;;;;;;10.10;3.00;;;;;;;13.61;49.76;100425.47;4920330;28;20544;-86
2023/05/25 01:53:12;;;;;;;8.38;2.85;;;;;;;13.72;49.02;100428.03;4908450;28;20057;-86
2023/05/25 01:55:47;;;;;;;12.25;3.17;;;;;;;13.66;49.21;100428.56;4923453;28;22834;-87
2023/05/25 01:58:14;;;;;;;12.50;3.35;;;;;;;13.74;49.05;100419.84;4942711;28;20051;-87
2023/05/25 02:00:42;;;;;;;11.85;3.17;;;;;;;13.74;49.19;100418.06;4910026;28;20050;-87
2023/05/25 02:03:09;;;;;;;13.90;3.42;;;;;;;13.75;49.24;100421.56;4940304;28;20047;-87
2023/05/25 02:05:36;;;;;;;10.63;2.78;;;;;;;13.76;49.23;100417.88;4920137;28;20082;-86
2023/05/25 02:08:06;;;;;;;7.07;3.33;;;;;;;13.80;49.43;100433.47;4922607;28;20120;-86
2023/05/25 02:10:33;;;;;;;16.00;3.35;;;;;;;13.80;49.37;100425.47;4936091;28;20061;-87
2023/05/25 02:13:00;;;;;;;8.25;2.90;;;;;;;13.80;49.20;100421.97;4917671;28;20548;-87
2023/05/25 02:15:31;;;;;;;9.90;3.00;;;;;;;13.75;49.47;100421.56;4934040;28;20397;-88
2023/05/25 02:17:59;;;;;;;7.63;2.97;;;;;;;13.74;49.55;100426.06;4936323;28;20043;-88
2023/05/25 02:20:29;;;;;;;9.07;3.15;;;;;;;13.66;49.50;100412.56;4948126;28;20586;-86
2023/05/25 02:22:56;;;;;;;10.40;3.35;;;;;;;13.61;49.54;100421.00;4935995;28;20993;-88
2023/05/25 02:25:23;;;;;;;7.78;2.83;;;;;;;13.62;49.42;100405.84;4914341;28;20554;-87
2023/05/25 02:27:50;;;;;;;10.00;3.00;;;;;;;13.58;49.58;100415.94;4912388;28;20043;-87
2023/05/25 02:30:16;;;;;;;13.10;3.50;;;;;;;13.56;49.75;100401.91;4939424;28;20054;-87
2023/05/25 02:32:43;;;;;;;8.00;3.53;;;;;;;13.40;49.95;100410.44;4925176;28;20047;-87
2023/05/25 02:35:11;;;;;;;13.38;3.08;;;;;;;13.30;50.16;100414.09;4936961;28;20047;-88
2023/05/25 02:37:38;;;;;;;14.27;3.65;;;;;;;13.19;50.27;100404.38;4929547;28;20114;-87
2023/05/25 02:40:06;;;;;;;8.00;2.85;;;;;;;13.27;50.26;100403.72;4918445;28;20051;-87
2023/05/25 02:42:33;;;;;;;11.10;2.90;;;;;;;13.31;50.34;100405.97;4926494;28;20082;-88
2023/05/25 02:45:00;;;;;;;9.80;3.38;;;;;;;13.25;50.47;100409.16;4940313;28;20050;-86
2023/05/25 02:47:31;;;;;;;11.93;3.38;;;;;;;13.31;50.23;100410.47;4939962;28;20053;-88
2023/05/25 02:49:58;;;;;;;7.63;3.10;;;;;;;13.21;50.39;100405.09;4941720;28;20050;-86
2023/05/25 02:52:25;;;;;;;12.48;4.25;;;;;;;13.14;50.64;100407.47;4924883;28;20510;-86
2023/05/25 02:54:51;;;;;;;9.55;4.00;;;;;;;13.22;50.67;100406.75;4914737;28;20297;-87
2023/05/25 02:57:27;;;;;;;9.23;3.35;;;;;;;13.13;50.92;100415.63;4927200;28;20051;-87
2023/05/25 02:59:54;;;;;;;10.88;3.88;;;;;;;13.23;50.60;100421.81;4923514;28;20060;-87
2023/05/25 03:02:24;;;;;;;12.98;3.47;;;;;;;13.31;50.42;100413.13;4924093;28;20054;-87
2023/05/25 03:04:52;;;;;;;8.57;3.67;;;;;;;13.36;50.19;100410.91;4925918;28;20043;-87
2023/05/25 03:07:20;;;;;;;8.25;2.60;;;;;;;13.36;50.39;100413.56;4916019;28;20132;-86
2023/05/25 03:09:47;;;;;;;9.27;2.95;;;;;;;13.37;50.05;100407.22;4939335;28;20091;-87
2023/05/25 03:12:15;;;;;;;8.00;3.67;;;;;;;13.19;50.53;100412.38;4931546;28;20542;-87
2023/05/25 03:14:41;;;;;;;9.60;3.08;;;;;;;13.31;50.47;100415.81;4954825;28;20261;-86
2023/05/25 03:17:09;;;;;;;13.80;3.70;;;;;;;13.25;50.52;100430.47;4944815;28;20047;-86
2023/05/25 03:19:36;;;;;;;19.48;3.47;;;;;;;13.31;50.28;100423.81;4985006;28;20058;-86
2023/05/25 03:22:03;;;;;;;15.20;4.38;;;;;;;13.28;50.63;100429.41;4964707;28;20580;-87
2023/05/25 03:24:32;;;;;;;16.40;4.15;;;;;;;13.23;50.51;100427.97;4923028;28;20434;-88
2023/05/25 03:27:01;;;;;;;8.57;3.58;;;;;;;13.25;50.48;100436.69;4926028;28;20337;-87
2023/05/25 03:29:28;;;;;;;11.68;3.58;;;;;;;13.30;50.45;100438.09;4956472;28;20065;-87
2023/05/25 03:31:55;;;;;;;8.13;3.15;;;;;;;13.24;51.05;100448.31;4968548;28;20121;-86
2023/05/25 03:34:25;;;;;;;14.20;3.50;;;;;;;13.19;50.80;100442.56;4935608;28;20058;-87
2023/05/25 03:37:15;;;;;;;12.07;3.47;;;;;;;13.22;51.19;100444.94;4874063;29;20598;-86
2023/05/25 03:39:42;;;;;;;14.98;3.67;;;;;;;13.17;51.04;100444.50;4859664;29;20217;-87
2023/05/25 03:42:09;;;;;;;11.93;3.08;;;;;;;13.16;50.90;100436.66;4901187;29;20126;-86
2023/05/25 03:44:38;;;;;;;13.23;3.30;;;;;;;13.19;51.05;100441.72;4869391;29;20649;-86
2023/05/25 03:47:07;;;;;;;10.35;3.00;;;;;;;13.12;50.83;100435.25;4899594;29;20066;-86
2023/05/25 03:49:34;;;;;;;13.32;4.45;;;;;;;13.16;50.83;100442.00;4889652;29;20048;-88
2023/05/25 03:52:06;;;;;;;12.80;3.55;;;;;;;13.14;51.01;100443.94;4821025;29;20059;-87
2023/05/25 03:54:35;;;;;;;11.57;3.88;;;;;;;13.20;51.09;100449.59;4890507;28;20046;-86
2023/05/25 03:57:02;;;;;;;20.98;3.70;;;;;;;13.37;51.22;100456.09;4944702;28;20058;-87
2023/05/25 03:59:30;;;;;;;11.32;3.63;;;;;;;13.66;51.55;100452.59;4947610;28;20054;-88
2023/05/25 04:01:56;;;;;;;11.95;3.53;;;;;;;14.02;50.89;100451.03;4953402;28;20725;-85
2023/05/25 04:04:23;;;;;;;10.23;3.80;;;;;;;14.56;50.24;100459.38;4943122;28;20458;-86
2023/05/25 04:06:50;;;;;;;7.07;3.40;;;;;;;15.06;49.81;100459.00;4922850;28;20125;-87
2023/05/25 04:09:18;;;;;;;13.40;3.92;;;;;;;15.39;47.88;100460.19;4923101;28;20483;-87
2023/05/25 04:11:45;;;;;;;9.80;3.20;;;;;;;15.71;46.92;100458.84;4924833;28;20474;-86
2023/05/25 04:14:12;;;;;;;10.25;3.58;;;;;;;15.98;46.08;100459.75;4907947;28;20050;-86
2023/05/25 04:16:40;;;;;;;15.18;3.85;;;;;;;15.97;45.67;100460.72;4931966;28;20073;-86
2023/05/25 04:19:08;;;;;;;12.80;3.72;;;;;;;15.75;45.62;100468.25;4915651;28;20065;-87
2023/05/25 04:21:35;;;;;;;12.30;3.45;;;;;;;15.46;46.03;100463.09;4911856;28;20537;-86
2023/05/25 04:24:03;;;;;;;9.23;3.47;;;;;;;15.32;46.62;100467.16;4924832;28;20450;-86
2023/05/25 04:26:30;;;;;;;9.65;4.25;;;;;;;15.10;47.02;100463.03;4937110;28;20059;-87
2023/05/25 04:29:00;;;;;;;9.60;3.83;;;;;;;15.05;47.22;100465.31;4922750;28;20518;-86
2023/05/25 04:31:50;;;;;;;13.55;3.67;;;;;;;14.97;47.36;100465.22;4944776;28;20061;-86
2023/05/25 04:34:47;;;;;;;11.77;3.55;;;;;;;14.92;47.65;100470.19;4954639;28;20076;-87
2023/05/25 04:37:20;;;;;;;8.20;3.38;;;;;;;14.70;47.58;100474.91;4934387;28;20764;-88
2023/05/25 04:39:47;;;;;;;8.05;3.25;;;;;;;14.68;48.27;100487.59;4928459;28;20058;-87
2023/05/25 04:42:15;;;;;;;12.75;4.00;;;;;;;14.61;48.40;100478.47;4956739;28;20105;-87
2023/05/25 04:44:42;;;;;;;10.68;3.90;;;;;;;14.50;48.60;100489.28;4954606;28;23099;-87
2023/05/25 04:47:11;;;;;;;8.93;3.70;;;;;;;14.46;48.49;100487.91;4964962;28;20137;-86
2023/05/25 04:49:37;;;;;;;17.15;3.92;;;;;;;14.40;48.83;100484.00;4969128;28;20129;-87
2023/05/25 04:52:06;;;;;;;11.25;3.55;;;;;;;14.36;49.34;100493.28;4957624;28;20046;-87
2023/05/25 04:54:34;;;;;;;13.25;3.78;;;;;;;14.31;49.20;100492.88;4953997;28;20046;-87
2023/05/25 04:57:01;;;;;;;13.95;3.53;;;;;;;14.34;49.41;100488.06;4920431;28;20394;-87
2023/05/25 04:59:30;;;;;;;8.63;3.58;;;;;;;14.32;49.30;100492.72;4945000;28;20047;-87
2023/05/25 05:01:57;;;;;;;12.10;3.38;;;;;;;14.22;49.61;100496.38;4931476;28;20533;-86
2023/05/25 05:04:25;;;;;;;7.70;3.20;;;;;;;14.22;49.43;100497.25;4921155;28;20305;-86
2023/05/25 05:06:53;;;;;;;8.73;3.85;;;;;;;14.23;49.57;100500.75;4904076;28;20062;-87
2023/05/25 05:09:23;;;;;;;9.88;3.83;;;;;;;14.17;49.68;100488.81;4938379;28;20054;-88
2023/05/25 05:11:53;;;;;;;10.05;3.50;;;;;;;14.18;50.13;100487.00;4923612;28;20402;-88
2023/05/25 05:14:19;;;;;;;11.68;4.00;;;;;;;14.12;49.56;100499.09;4944181;28;20046;-87
2023/05/25 05:16:46;;;;;;;16.17;4.63;;;;;;;13.96;50.24;100502.31;4924228;28;20055;-86
2023/05/25 05:19:14;;;;;;;13.68;4.07;;;;;;;14.00;50.04;100501.06;4939071;28;20400;-87
2023/05/25 05:21:41;;;;;;;7.70;3.80;;;;;;;14.03;50.14;100499.94;4931382;28;20051;-88
2023/05/25 05:24:08;;;;;;;8.70;3.22;;;;;;;13.94;50.22;100498.09;4926669;28;20198;-88
2023/05/25 05:26:35;;;;;;;14.10;4.13;;;;;;;13.95;50.53;100500.66;4926031;28;20054;-88
2023/05/25 05:29:25;;;;;;;12.75;4.20;;;;;;;13.92;50.76;100510.75;4944531;28;20125;-88
2023/05/25 05:31:54;;;;;;;12.07;4.00;;;;;;;13.80;50.74;100518.91;4934166;28;20046;-88
2023/05/25 05:34:21;;;;;;;10.13;3.65;;;;;;;13.77;51.19;100524.53;4939231;28;20059;-88
2023/05/25 05:36:49;;;;;;;11.15;3.55;;;;;;;13.75;51.57;100529.16;4958617;28;20386;-87
2023/05/25 05:39:26;;;;;;;6.60;3.35;;;;;;;13.71;51.40;100545.59;4961596;28;20049;-89
2023/05/25 05:41:53;;;;;;;13.50;3.97;;;;;;;13.73;51.33;100540.97;4961409;28;20564;-88
2023/05/25 05:44:21;;;;;;;9.65;3.92;;;;;;;13.78;51.30;100549.38;4976216;28;20418;-88
2023/05/25 05:46:51;;;;;;;12.77;3.67;;;;;;;13.82;51.33;100540.13;4929891;28;20384;-88
2023/05/25 05:49:18;;;;;;;9.57;3.55;;;;;;;13.79;51.32;100535.91;4936663;28;20055;-89
2023/05/25 05:51:45;;;;;;;6.88;3.20;;;;;;;13.76;51.57;100549.50;4927935;28;20704;-88
2023/05/25 05:54:12;;;;;;;13.95;4.90;;;;;;;13.66;51.46;100562.88;4950545;28;20524;-87
2023/05/25 05:56:39;;;;;;;8.93;3.83;;;;;;;13.58;52.03;100559.19;4940576;28;20456;-88
2023/05/25 05:59:07;;;;;;;11.65;4.43;;;;;;;13.59;51.67;100544.88;4932364;28;20047;-86
2023/05/25 06:01:34;;;;;;;10.98;4.40;;;;;;;13.60;52.25;100555.41;4938871;28;20323;-89
2023/05/25 06:04:01;;;;;;;10.95;4.63;;;;;;;13.60;52.13;100544.72;4927701;28;20047;-87
2023/05/25 06:06:28;;;;;;;18.70;3.92;;;;;;;13.57;52.66;100547.69;4931842;28;20042;-87
2023/05/25 06:08:55;;;;;;;11.38;4.32;;;;;;;13.79;51.82;100546.59;4944277;28;20576;-87
2023/05/25 06:11:23;;;;;;;11.35;3.70;;;;;;;13.73;51.81;100544.47;4969315;28;20050;-88
2023/05/25 06:13:50;;;;;;;8.98;3.63;;;;;;;13.81;52.32;100551.78;4952871;28;20426;-88
2023/05/25 06:16:16;;;;;;;12.00;3.95;;;;;;;13.69;51.99;100561.75;4938316;28;20074;-87
2023/05/25 06:18:43;;;;;;;7.32;3.70;;;;;;;13.72;52.30;100544.63;4968273;28;20069;-88
2023/05/25 06:21:10;;;;;;;11.10;4.40;;;;;;;13.76;52.12;100554.84;4952960;28;20055;-87
2023/05/25 06:23:38;;;;;;;10.68;3.47;;;;;;;13.76;52.47;100564.69;4936835;28;20054;-88
2023/05/25 06:26:05;;;;;;;9.20;3.80;;;;;;;13.83;52.41;100560.50;4934644;28;20125;-88
2023/05/25 06:28:35;;;;;;;12.20;3.85;;;;;;;13.87;52.35;100562.75;4910369;28;20055;-88
2023/05/25 06:31:02;;;;;;;13.10;3.97;;;;;;;13.89;52.21;100567.94;4952022;28;20459;-88
2023/05/25 06:33:30;;;;;;;9.88;3.90;;;;;;;14.00;52.32;100570.50;4955748;28;20050;-87
2023/05/25 06:35:59;;;;;;;12.88;4.00;;;;;;;14.00;51.98;100569.66;4966620;28;20125;-87
2023/05/25 06:38:27;;;;;;;13.73;3.67;;;;;;;14.05;51.80;100564.72;4968592;28;20054;-88
2023/05/25 06:40:53;;;;;;;12.70;3.97;;;;;;;14.06;52.15;100567.25;4938963;28;20070;-87
2023/05/25 06:43:20;;;;;;;15.27;3.72;;;;;;;14.19;52.15;100556.28;4960460;28;20136;-87
2023/05/25 06:45:58;;;;;;;13.90;3.78;;;;;;;14.19;52.12;100561.63;4945222;28;20109;-88
2023/05/25 06:48:25;;;;;;;10.50;3.92;;;;;;;14.20;51.90;100552.63;4923303;28;20474;-88
2023/05/25 06:50:52;;;;;;;15.43;3.53;;;;;;;14.26;52.05;100559.25;4937585;28;20101;-87
2023/05/25 06:53:18;;;;;;;14.50;4.05;;;;;;;14.31;51.82;100557.81;4938794;28;20070;-87
2023/05/25 06:55:45;;;;;;;12.70;4.22;;;;;;;14.30;52.01;100560.66;4930199;28;20184;-87
2023/05/25 06:58:12;;;;;;;10.80;3.65;;;;;;;14.34;52.00;100557.53;4953209;28;20051;-87
2023/05/25 07:00:39;;;;;;;12.25;4.35;;;;;;;14.34;52.16;100548.69;4940121;28;20052;-87
2023/05/25 07:03:06;;;;;;;9.15;4.00;;;;;;;14.40;51.91;100553.47;4959413;28;20044;-89
2023/05/25 07:05:33;;;;;;;11.40;4.30;;;;;;;14.50;53.08;100553.44;4951629;28;20063;-88
2023/05/25 07:07:59;;;;;;;16.67;4.70;;;;;;;14.51;52.00;100555.97;4936518;28;20100;-88
2023/05/25 07:10:26;;;;;;;10.63;3.83;;;;;;;14.49;53.28;100554.44;4928301;28;20050;-87
2023/05/25 07:12:53;;;;;;;13.90;4.20;;;;;;;14.60;52.90;100554.28;4964636;28;20097;-87
2023/05/25 07:15:21;;;;;;;11.85;4.00;;;;;;;14.59;52.85;100552.59;4946569;28;20055;-87
2023/05/25 07:17:48;;;;;;;13.25;3.90;;;;;;;14.62;52.41;100551.47;4965277;28;20093;-87
2023/05/25 07:20:15;;;;;;;11.50;4.25;;;;;;;14.69;52.84;100549.91;4952033;28;20105;-88
2023/05/25 07:22:42;;;;;;;9.80;4.03;;;;;;;14.66;52.62;100550.22;4945709;28;20069;-87
2023/05/25 07:25:09;;;;;;;12.73;3.88;;;;;;;14.73;52.84;100552.16;4946385;28;20141;-88
2023/05/25 07:27:36;;;;;;;11.95;3.85;;;;;;;14.71;52.56;100551.47;4935040;28;20047;-88
2023/05/25 07:30:03;;;;;;;11.70;4.18;;;;;;;14.70;52.46;100554.25;4921879;28;20138;-86
2023/05/25 07:32:31;;;;;;;13.45;4.40;;;;;;;14.76;52.64;100556.38;4950961;28;20556;-87
2023/05/25 07:34:57;;;;;;;10.32;3.88;;;;;;;14.82;53.15;100555.78;4937946;28;20468;-87
2023/05/25 07:37:24;;;;;;;12.55;4.60;;;;;;;14.90;53.55;100555.06;4954257;28;20125;-88
2023/05/25 07:39:51;;;;;;;10.50;4.25;;;;;;;14.93;52.54;100560.97;4948082;28;20057;-88
2023/05/25 07:42:19;;;;;;;13.52;3.90;;;;;;;14.96;52.96;100560.66;4935724;28;20149;-86
2023/05/25 07:44:47;;;;;;;10.55;3.83;;;;;;;15.00;53.20;100561.22;4948165;28;20039;-87
2023/05/25 07:47:14;;;;;;;12.82;4.05;;;;;;;15.04;52.32;100567.97;4921506;28;20529;-87
2023/05/25 07:49:41;;;;;;;12.27;4.97;;;;;;;15.04;52.16;100573.31;4943950;28;20047;-88
2023/05/25 07:52:09;;;;;;;14.00;4.53;;;;;;;15.01;51.51;100575.41;4941770;28;20130;-87
2023/05/25 07:54:38;;;;;;;12.65;4.05;;;;;;;15.02;51.86;100567.25;4950469;28;20046;-87
2023/05/25 07:57:06;;;;;;;15.18;3.85;;;;;;;15.03;51.86;100573.44;4941977;28;20046;-87
2023/05/25 07:59:34;;;;;;;13.35;4.43;;;;;;;15.07;52.04;100564.16;4946708;28;20560;-89
2023/05/25 08:02:01;;;;;;;9.98;3.72;;;;;;;15.13;52.10;100563.56;4956979;28;20049;-87
2023/05/25 08:04:29;;;;;;;13.52;4.82;;;;;;;15.23;52.73;100558.16;4953147;28;20046;-86
2023/05/25 08:06:56;;;;;;;8.82;3.90;;;;;;;15.28;52.28;100569.25;4967433;28;20042;-87
2023/05/25 08:09:22;;;;;;;11.40;4.60;;;;;;;15.27;52.38;100576.44;4957385;28;20138;-87
2023/05/25 08:11:49;;;;;;;12.48;4.45;;;;;;;15.25;51.92;100575.75;4920324;28;20107;-87
2023/05/25 08:14:16;;;;;;;14.55;4.60;;;;;;;15.31;51.60;100566.28;4930299;28;20138;-88
2023/05/25 08:16:43;;;;;;;10.98;3.95;;;;;;;15.26;51.74;100556.03;4933969;28;20131;-88
2023/05/25 08:19:10;;;;;;;13.45;5.40;;;;;;;15.32;52.00;100562.63;4942749;28;20044;-87
2023/05/25 08:21:38;;;;;;;11.43;4.45;;;;;;;15.30;52.23;100573.47;4923585;28;20334;-86
2023/05/25 08:24:07;;;;;;;13.27;4.18;;;;;;;15.33;51.17;100559.78;4948779;28;20398;-88
2023/05/25 08:26:35;;;;;;;12.40;4.10;;;;;;;15.40;51.97;100568.09;4924441;28;20047;-88
2023/05/25 08:29:20;;;;;;;9.70;4.32;;;;;;;15.44;51.50;100565.94;4945541;28;20133;-88
2023/05/25 08:31:48;;;;;;;14.18;4.80;;;;;;;15.48;51.97;100559.31;4955548;28;20058;-87
2023/05/25 08:34:15;;;;;;;10.85;4.25;;;;;;;15.47;52.01;100557.59;4928086;28;20058;-87
2023/05/25 08:36:43;;;;;;;13.88;5.10;;;;;;;15.50;51.49;100562.69;4941839;28;20046;-89
2023/05/25 08:39:10;;;;;;;10.77;4.47;;;;;;;15.54;52.11;100561.38;4908430;28;20117;-87
2023/05/25 08:41:41;;;;;;;9.25;4.05;;;;;;;15.55;51.56;100571.09;4936377;28;20055;-87
2023/05/25 08:44:09;;;;;;;11.25;4.65;;;;;;;15.64;51.45;100562.16;4944102;28;20509;-88
2023/05/25 08:46:36;;;;;;;10.60;3.65;;;;;;;15.62;51.63;100559.63;4957779;28;20057;-87
2023/05/25 08:49:13;;;;;;;17.35;4.68;;;;;;;15.60;52.34;100556.28;4965631;28;20050;-88
2023/05/25 08:51:53;;;;;;;14.20;5.72;;;;;;;15.61;51.66;100565.13;4951067;28;20044;-88
2023/05/25 08:54:26;;;;;;;10.55;4.20;;;;;;;15.75;51.50;100567.34;4969021;28;20046;-87
2023/05/25 08:57:18;;;;;;;11.95;4.22;;;;;;;15.68;51.68;100570.75;4935817;28;20051;-88
2023/05/25 09:00:03;;;;;;;9.82;4.40;;;;;;;15.72;51.77;100564.97;4967017;28;20555;-88
2023/05/25 09:02:35;;;;;;;13.57;4.90;;;;;;;15.75;51.49;100555.78;4957151;28;20060;-88
2023/05/25 09:05:01;;;;;;;11.18;4.20;;;;;;;15.83;52.40;100570.09;4973227;28;20049;-87
2023/05/25 09:07:29;;;;;;;14.88;4.85;;;;;;;15.92;52.62;100559.47;4954675;28;20051;-88
2023/05/25 09:09:56;;;;;;;13.25;4.90;;;;;;;15.94;51.72;100554.78;4959796;28;20538;-87
2023/05/25 09:12:23;;;;;;;8.82;4.70;;;;;;;15.97;52.05;100571.38;4943681;28;20417;-88
2023/05/25 09:14:52;;;;;;;15.93;5.07;;;;;;;15.99;51.90;100565.88;4937807;28;20047;-87
2023/05/25 09:17:20;;;;;;;12.55;4.68;;;;;;;16.01;52.02;100572.78;4966706;28;20108;-88
2023/05/25 09:19:47;;;;;;;8.52;4.85;;;;;;;16.09;51.43;100563.13;4969724;28;20054;-88
2023/05/25 09:22:13;;;;;;;10.68;4.20;;;;;;;16.09;52.02;100574.69;4969949;28;20047;-88
2023/05/25 09:24:43;;;;;;;13.48;4.72;;;;;;;16.11;52.55;100558.47;4962002;28;20042;-87
2023/05/25 09:27:12;;;;;;;12.93;4.60;;;;;;;16.21;51.72;100556.56;4975318;28;20521;-88
2023/05/25 09:29:39;;;;;;;11.52;4.53;;;;;;;16.22;52.39;100556.38;4934021;28;20125;-88
2023/05/25 09:32:06;;;;;;;16.92;5.25;;;;;;;16.16;52.60;100569.56;4975190;28;20046;-86
2023/05/25 09:34:33;;;;;;;16.17;5.57;;;;;;;16.26;51.67;100568.50;4964167;28;20125;-88
2023/05/25 09:37:10;;;;;;;16.48;5.57;;;;;;;16.19;52.13;100572.78;4968322;28;20050;-87
2023/05/25 09:39:39;;;;;;;9.32;4.35;;;;;;;16.23;51.27;100574.16;4957664;28;20050;-87
2023/05/25 09:42:06;;;;;;;9.02;4.93;;;;;;;16.30;51.17;100578.91;4959207;28;20046;-88
2023/05/25 09:44:33;;;;;;;14.20;4.72;;;;;;;16.28;51.37;100561.13;4966129;28;20058;-88
2023/05/25 09:47:01;;;;;;;11.73;4.90;;;;;;;16.35;51.17;100571.22;4951828;28;20046;-86
2023/05/25 09:49:28;;;;;;;10.38;4.22;;;;;;;16.36;51.65;100588.97;4937905;28;20652;-87
2023/05/25 09:51:55;;;;;;;10.80;4.70;;;;;;;16.39;51.23;100576.13;4947866;28;20050;-88
2023/05/25 09:54:22;;;;;;;10.32;4.70;;;;;;;16.44;51.30;100570.31;4963907;28;20046;-87
2023/05/25 09:56:48;;;;;;;13.60;4.93;;;;;;;16.45;51.07;100570.13;4936900;28;20298;-87
2023/05/25 09:59:15;;;;;;;14.30;4.43;;;;;;;16.50;50.92;100569.66;4946911;28;20047;-88
2023/05/25 10:01:43;;;;;;;10.18;4.72;;;;;;;16.54;51.64;100565.69;4920601;28;20043;-88
2023/05/25 10:04:14;;;;;;;14.50;5.07;;;;;;;16.55;50.86;100563.84;4949247;28;20263;-87
2023/05/25 10:06:42;;;;;;;9.40;4.95;;;;;;;16.63;50.61;100575.47;4954560;28;20411;-88
2023/05/25 10:09:11;;;;;;;14.05;5.07;;;;;;;16.64;50.95;100557.56;4931743;28;20055;-87
2023/05/25 10:11:42;;;;;;;13.35;4.30;;;;;;;16.64;51.07;100558.38;4913982;28;20047;-88
2023/05/25 10:14:09;;;;;;;9.27;4.43;;;;;;;16.71;50.77;100553.22;4938840;28;20806;-88
2023/05/25 10:16:38;;;;;;;7.90;5.13;;;;;;;16.72;52.03;100554.91;4948228;28;20070;-88
2023/05/25 10:19:10;;;;;;;13.48;5.55;;;;;;;16.82;51.33;100584.34;4938407;28;20063;-89
2023/05/25 10:21:38;;;;;;;10.65;4.60;;;;;;;16.79;51.39;100571.22;4937555;28;20499;-86
2023/05/25 10:24:12;;;;;;;13.38;5.47;;;;;;;16.83;50.65;100557.34;4938013;28;20253;-87
2023/05/25 10:26:39;;;;;;;10.63;4.47;;;;;;;16.84;49.74;100560.88;4937117;28;20126;-87
2023/05/25 10:29:07;;;;;;;10.98;5.82;;;;;;;16.89;50.10;100580.00;4931597;28;20054;-88
2023/05/25 10:31:36;;;;;;;13.85;5.43;;;;;;;16.88;50.12;100557.72;4924872;28;20744;-88
2023/05/25 10:34:03;;;;;;;10.07;4.65;;;;;;;16.96;50.45;100550.72;4946513;28;20078;-89
2023/05/25 10:36:30;;;;;;;13.52;5.22;;;;;;;17.01;50.32;100556.44;4943290;28;20042;-88
2023/05/25 10:38:57;;;;;;;10.85;4.55;;;;;;;17.03;50.30;100582.13;4966906;28;20105;-88
2023/05/25 10:41:25;;;;;;;10.95;5.05;;;;;;;17.01;49.99;100557.28;4959339;28;20510;-89
2023/05/25 10:43:52;;;;;;;7.55;4.22;;;;;;;17.06;50.02;100554.97;4947233;28;20121;-87
2023/05/25 10:46:19;;;;;;;10.05;4.53;;;;;;;17.05;50.22;100541.72;4959086;28;20054;-88
2023/05/25 10:48:48;;;;;;;11.57;5.28;;;;;;;17.11;50.74;100539.22;4954931;28;20505;-87
2023/05/25 10:51:18;;;;;;;10.45;4.32;;;;;;;17.16;50.05;100552.16;4932606;28;21529;-89
2023/05/25 10:53:46;;;;;;;6.25;4.97;;;;;;;17.18;49.69;100535.91;4942650;28;20046;-88
2023/05/25 10:56:13;;;;;;;10.65;5.45;;;;;;;17.26;49.75;100531.41;4964444;28;20046;-86
2023/05/25 10:58:42;;;;;;;11.18;4.78;;;;;;;17.28;50.46;100545.50;4936278;28;20510;-87
2023/05/25 11:01:11;;;;;;;12.95;4.68;;;;;;;17.30;50.32;100542.63;4928284;28;20142;-87
2023/05/25 11:03:47;;;;;;;11.38;5.15;;;;;;;17.31;49.56;100538.97;4954434;28;20480;-87
2023/05/25 11:06:15;;;;;;;8.68;4.32;;;;;;;17.42;49.48;100546.72;4954910;28;20042;-87
2023/05/25 11:08:54;;;;;;;13.48;4.35;;;;;;;17.30;49.21;100546.19;4957053;28;20054;-86
2023/05/25 11:11:41;;;;;;;10.40;4.75;;;;;;;17.34;49.61;100546.69;4959641;28;20070;-86
2023/05/25 11:14:20;;;;;;;9.50;4.38;;;;;;;17.42;49.27;100544.03;4952963;28;20071;-88
2023/05/25 11:17:13;;;;;;;11.73;4.95;;;;;;;17.39;49.02;100536.31;4926257;28;20051;-87
2023/05/25 11:19:47;;;;;;;9.85;5.55;;;;;;;17.48;49.09;100546.09;4955013;28;20043;-85
2023/05/25 11:22:22;;;;;;;7.78;4.63;;;;;;;17.48;49.75;100534.50;4947943;28;20051;-86
2023/05/25 11:24:50;;;;;;;11.05;4.40;;;;;;;17.54;50.02;100531.16;4940801;28;20062;-85
2023/05/25 11:27:26;;;;;;;10.13;5.25;;;;;;;17.60;48.89;100538.53;4927279;28;20038;-87